• Join FlightAware (Why Join?)
  • Login
  • US Flag 
Rudolph Flight #1: Scheduled 
09:07PM EST


 

Airport Tracker/Info


-or-


 

Live Flight TrackerFlight Track Log ✈ ASQ9184 ✈ 10-Aug-2012 ✈ KCLT - KOKC

Flight Track Log - Related Links

Times and Time Zones

All times are in EDT time to prevent confusion due to time zone crossing. See the ASQ9184 flight status page for this flight to view local times or setup timezone preferences in your user account.

Time Position Orientation Groundspeed Altitude Reporting Facility
EDT Latitude Longitude Course Direction KTS MPH feet Rate Location/Type
10:56PM 35.1956 -80.9533 182° South 199 229 1,700  Level Atlanta Center
10:57PM 35.1453 -80.9553 208° Southwest 223 257 4,100 3,180 Climbing Atlanta Center
10:58PM 35.0961 -80.9875 282° West 253 291 7,500 2,100 Climbing Atlanta Center
10:59PM 35.1106 -81.0681 354° North 280 322 8,100 1,560 Climbing Atlanta Center
11:00PM 35.1881 -81.0781 296° West 287 330 10,700 2,760 Climbing Atlanta Center
11:01PM 35.2169 -81.1508 255° West 259 298 13,700 1,620 Climbing Atlanta Center
11:02PM 35.2000 -81.2275 257° West 284 327 14,000 600 Climbing Atlanta Center
11:03PM 35.1814 -81.3272 257° West 294 338 15,000 1,380 Climbing Atlanta Center
11:04PM 35.1589 -81.4475 261° West 341 392 16,800 2,040 Climbing Atlanta Center
11:05PM 35.1428 -81.5775 264° West 354 407 19,100 2,040 Climbing Atlanta Center
11:06PM 35.1328 -81.6997 267° West 364 419 20,900 1,620 Climbing Atlanta Center
11:07PM 35.1267 -81.8269 268° West 371 427 22,400 1,020 Climbing Atlanta Center
11:08PM 35.1228 -81.9564 292° West 381 438 23,000 420 Climbing Atlanta Center
11:09PM 35.1644 -82.0850 304° West 390 449 23,300 780 Climbing Atlanta Center
11:10PM 35.2267 -82.1981 310° West 396 456 24,600 1,500 Climbing Atlanta Center
11:11PM 35.2992 -82.3058 301° West 407 468 26,400 1,500 Climbing Atlanta Center
11:12PM 35.3506 -82.4092 285° West 412 474 27,700 1,200 Climbing Atlanta Center
11:13PM 35.3794 -82.5383 283° West 393 452 28,900 1,140 Climbing Atlanta Center
11:14PM 35.4061 -82.6858 284° West 393 452 30,000 1,020 Climbing Atlanta Center
11:15PM 35.4347 -82.8228 283° West 408 470 31,000 1,080 Climbing Atlanta Center
11:16PM 35.4611 -82.9628 282° West 416 479 32,200 1,200 Climbing Atlanta Center
11:17PM 35.4853 -83.0975 284° West 416 479 33,400 1,020 Climbing Atlanta Center
11:18PM 35.5069 -83.2069 286° West 411 473 34,300 1,080 Climbing Atlanta Center
11:19PM 35.5411 -83.3547 282° West 411 473 35,600 840 Climbing Atlanta Center
11:20PM 35.5647 -83.4897 283° West 411 473 36,000 180 Climbing Atlanta Center
11:21PM 35.5903 -83.6275 285° West 411 473 36,000  Level Atlanta Center
11:22PM 35.6178 -83.7578 282° West 411 473 36,000  Level Atlanta Center
11:23PM 35.6411 -83.8881 284° West 406 467 36,000  Level Atlanta Center
11:24PM 35.6661 -84.0158 282° West 400 460 36,000  Level Atlanta Center
11:25PM 35.6889 -84.1461 284° West 394 453 36,000  Level Atlanta Center
11:26PM 35.7139 -84.2742 282° West 389 448 36,000  Level Atlanta Center
11:27PM 35.7364 -84.4019 284° West 389 448 36,000  Level Atlanta Center
11:28PM 35.7631 -84.5378 282° West 394 453 36,000  Level Atlanta Center
11:30PM 35.8006 -84.7569 287° West 391 450 36,000  Level Memphis Center
11:31PM 35.8311 -84.8803 279° West 406 467 36,000  Level Memphis Center
11:32PM 35.8475 -85.0125 283° West 401 461 36,000  Level Memphis Center
11:33PM 35.8744 -85.1567 282° West 407 468 36,000  Level Memphis Center
11:34PM 35.8964 -85.2858 283° West 396 456 36,000  Level Memphis Center
11:35PM 35.9150 -85.3847 282° West 390 449 36,000  Level Memphis Center
11:36PM 35.9392 -85.5242 282° West 385 443 36,000  Level Memphis Center
11:37PM 35.9608 -85.6511 281° West 385 443 36,000  Level Memphis Center
11:38PM 35.9825 -85.7858 284° West 392 451 36,000  Level Memphis Center
11:39PM 36.0106 -85.9256 281° West 392 451 36,000  Level Memphis Center
11:40PM 36.0319 -86.0578 282° West 392 451 36,000  Level Memphis Center
11:41PM 36.0528 -86.1825 281° West 387 445 36,000  Level Memphis Center
11:42PM 36.0736 -86.3097 281° West 387 445 36,000  Level Memphis Center
11:43PM 36.0919 -86.4219 281° West 387 445 36,000  Level Memphis Center
11:44PM 36.1128 -86.5544 280° West 387 445 36,000  Level Memphis Center
11:45PM 36.1311 -86.6822 271° West 387 445 36,000  Level Memphis Center
11:46PM 36.1328 -86.8131 271° West 387 445 36,000  Level Memphis Center
11:47PM 36.1350 -86.9594 272° West 387 445 36,000  Level Memphis Center
11:48PM 36.1386 -87.0931 271° West 387 445 36,000  Level Memphis Center
11:49PM 36.1397 -87.2189 271° West 381 438 36,000  Level Memphis Center
11:50PM 36.1408 -87.3500 270° West 381 438 36,000  Level Memphis Center
11:51PM 36.1417 -87.4783 270° West 386 444 36,000  Level Memphis Center
11:52PM 36.1425 -87.6069 272° West 386 444 36,000  Level Memphis Center
11:53PM 36.1456 -87.7378 269° West 386 444 36,000  Level Memphis Center
11:54PM 36.1436 -87.8536 270° West 386 444 36,000  Level Memphis Center
11:55PM 36.1442 -87.9847 270° West 386 444 36,000  Level Memphis Center
11:56PM 36.1444 -88.1183 271° West 386 444 36,000  Level Memphis Center
11:57PM 36.1467 -88.2417 269° West 381 438 36,000  Level Memphis Center
11:58PM 36.1447 -88.3703 270° West 381 438 36,000  Level Memphis Center
11:59PM 36.1447 -88.4986 270° West 386 444 36,000  Level Memphis Center
12:00AM 36.1444 -88.6325 269° West 386 444 36,000  Level Memphis Center
12:01AM 36.1419 -88.7636 269° West 386 444 36,000  Level Memphis Center
12:02AM 36.1397 -88.9047 270° West 386 444 36,000  Level Memphis Center
12:03AM 36.1389 -89.0386 267° West 386 444 36,000  Level Memphis Center
12:04AM 36.1342 -89.1697 270° West 386 444 36,000  Level Memphis Center
12:05AM 36.1333 -89.3033 269° West 386 444 36,000  Level Memphis Center
12:06AM 36.1322 -89.4369 270° West 386 444 36,000  Level Memphis Center
12:07AM 36.1331 -89.5706 269° West 386 444 36,000  Level Memphis Center
12:08AM 36.1319 -89.7017 268° West 386 444 36,000  Level Memphis Center
12:09AM 36.1283 -89.8381 269° West 386 444 36,000  Level Memphis Center
12:10AM 36.1267 -89.9664 269° West 386 444 36,000  Level Memphis Center
12:11AM 36.1250 -90.1000 269° West 386 444 36,000  Level Memphis Center
12:12AM 36.1231 -90.2286 269° West 386 444 36,000  Level Memphis Center
12:13AM 36.1211 -90.3647 268° West 386 444 36,000  Level Memphis Center
12:14AM 36.1169 -90.4931 268° West 386 444 36,000  Level Memphis Center
12:15AM 36.1125 -90.6267 270° West 386 444 36,000  Level Memphis Center
12:16AM 36.1122 -90.7450 269° West 386 444 36,000  Level Memphis Center
12:17AM 36.1097 -90.8758 270° West 386 444 36,000  Level Memphis Center
12:18AM 36.1089 -91.0094 273° West 386 444 36,000  Level Memphis Center
12:19AM 36.1144 -91.1406 272° West 386 444 36,000  Level Memphis Center
12:20AM 36.1178 -91.2717 274° West 386 444 36,000  Level Memphis Center
12:21AM 36.1250 -91.4028 272° West 386 444 36,000  Level Memphis Center
12:22AM 36.1281 -91.5339 272° West 386 444 36,000  Level Memphis Center
12:23AM 36.1308 -91.6650 272° West 386 444 36,000  Level Memphis Center
12:24AM 36.1336 -91.7986 274° West 386 444 36,000  Level Memphis Center
12:25AM 36.1403 -91.9350 274° West 386 444 36,000  Level Memphis Center
12:26AM 36.1469 -92.0689 272° West 386 444 36,000  Level Memphis Center
12:27AM 36.1511 -92.2156 272° West 386 444 36,000  Level Memphis Center
12:28AM 36.1553 -92.3517 272° West 391 450 36,000  Level Memphis Center
12:29AM 36.1592 -92.4906 270° West 397 457 36,000  Level Memphis Center
12:30AM 36.1589 -92.6244 273° West 403 464 36,000  Level Memphis Center
12:31AM 36.1647 -92.7633 272° West 403 464 36,000  Level Memphis Center
12:32AM 36.1681 -92.9047 272° West 403 464 36,000  Level Memphis Center
12:33AM 36.1714 -93.0464 271° West 403 464 36,000  Level Memphis Center
12:34AM 36.1725 -93.1800 272° West 403 464 36,000  Level Memphis Center
12:35AM 36.1756 -93.3217 270° West 403 464 36,000  Level Memphis Center
12:36AM 36.1764 -93.4606 272° West 403 464 36,000  Level Memphis Center
12:37AM 36.1811 -93.5969 270° West 403 464 36,000  Level Memphis Center
12:38AM 36.1817 -93.7333 269° West 403 464 36,000  Level Memphis Center
12:39AM 36.1800 -93.8744 272° West 403 464 36,000  Level Memphis Center
12:40AM 36.1842 -94.0161 270° West 403 464 36,000  Level Memphis Center
12:41AM 36.1842 -94.1550 272° West 403 464 36,000  Level Memphis Center
12:42AM 36.1881 -94.2967 270° West 403 464 36,000  Level Memphis Center
12:43AM 36.1878 -94.4381 272° West 403 464 36,000  Level Memphis Center
12:44AM 36.1914 -94.5797 271° West 408 470 36,000  Level Memphis Center
12:46AM 36.1936 -94.8894 271° West 405 466 36,000  Level Kansas City Center
12:47AM 36.1953 -95.0311 270° West 405 466 36,000  Level Kansas City Center
12:48AM 36.1944 -95.1700 271° West 410 472 36,000  Level Kansas City Center
12:49AM 36.1958 -95.2989 270° West 410 472 36,000  Level Kansas City Center
12:50AM 36.1947 -95.4456 270° West 415 478 36,000  Level Kansas City Center
12:51AM 36.1956 -95.5922 270° West 421 484 36,000  Level Kansas City Center
12:52AM 36.1961 -95.7389 264° West 421 484 36,000 -300 Level Kansas City Center
12:53AM 36.1842 -95.8881 260° West 421 484 35,400 -1,020 Descending Kansas City Center
12:54AM 36.1636 -96.0394 261° West 439 505 34,000 -1,500 Descending Kansas City Center
12:55AM 36.1447 -96.1856 261° West 439 505 32,500 -1,500 Descending Kansas City Center
12:56AM 36.1239 -96.3394 261° West 447 514 31,000 -1,620 Descending Kansas City Center
12:57AM 36.1047 -96.4933 260° West 447 514 29,300 -1,860 Descending Kansas City Center
12:58AM 36.0833 -96.6419 260° West 447 514 27,300 -2,100 Descending Kansas City Center
01:00AM 36.0331 -96.9747 256° West 428 493 22,700 -2,160 Descending Fort Worth Center
01:01AM 36.0042 -97.1186 221° Southwest 431 496 20,600 -2,220 Descending Fort Worth Center
01:02AM 35.9147 -97.2136 211° Southwest 435 501 18,300 -2,220 Descending Fort Worth Center
01:03AM 35.8150 -97.2881 210° Southwest 418 481 16,100 -2,280 Descending Fort Worth Center
01:04AM 35.7044 -97.3675 209° Southwest 400 460 13,500 -2,220 Descending Fort Worth Center
01:05AM 35.6128 -97.4289 192° South 381 438 11,500 -1,680 Descending Fort Worth Center
01:06AM 35.5250 -97.4519 188° South 325 374 10,200 -1,560 Descending Fort Worth Center
01:07AM 35.4417 -97.4669 188° South 299 344 8,400 -1,740 Descending Fort Worth Center
01:08AM 35.3667 -97.4797 182° South 282 325 6,700 -1,740 Descending Fort Worth Center
01:09AM 35.2894 -97.4822 234° Southwest 269 310 4,900 -1,500 Descending Fort Worth Center
01:10AM 35.2539 -97.5431 305° West 242 278 3,700 -960 Descending Fort Worth Center
01:11AM 35.2831 -97.5942 360° North 189 217 3,000 -660 Descending Fort Worth Center
01:12AM 35.3186 -97.5942 360° North 128 147 2,400 -600 Descending Fort Worth Center